Schooner Bowdoin — WAM8653 — position and weather

sailwx.info

Track history (hours):
 
Tides and Currents Weather Stations Pressure Air Temp Water Temp Dewpoint Dewpoint Depression Visibility Wind Speed Wind Dir Waves Ship Positions

Schooner Bowdoin

Training vessel for Maine Maritime Academy.

Ship's website: http://bowdoin.mma.edu/

Owner: MAINE MARITIME ACADEMY, CASTINE, ME. More information available from US FCC via Universal Licensing System and Coast Guard Vessel Documentation Center.

Last reported at 2017-Oct-28 18:30 UTC. Time now 2017-Nov-17 19:24 UTC.
Position N 44°12' W 068°54'.
Warning: this ship's position is 20 days out of date.

; draft 3 m.

Type: Sailing vessel. MMSI: 303498000.

Date/timePositionNaut miles runAvg speedWind from/ knotsBaromVisibWave heightAir tempDewpointWater temp
2017-Oct-28 18:30N 44°12' W 068°54'4 5.2
2017-Oct-28 17:46N 44°09' W 068°57'2 5.7
2017-Oct-28 17:21N 44°06' W 068°58'2 6.0
2017-Oct-28 17:00N 44°04' W 068°59'16 2.3
2017-Oct-28 10:06N 43°49' W 068°56'7 4.2
2017-Oct-28 08:22N 43°56' W 068°58'2 4.1
2017-Oct-28 07:47N 43°58' W 068°60'2 4.0
2017-Oct-28 07:22N 43°60' W 069°00'2 3.7
2017-Oct-28 06:46N 44°02' W 069°01'2 4.4
2017-Oct-28 06:25N 44°04' W 069°01'2 4.3
2017-Oct-28 05:51N 44°06' W 069°00'2 4.4
2017-Oct-28 05:25N 44°07' W 068°58'2 4.8
2017-Oct-28 04:58N 44°09' W 068°57'3 1.5
2017-Oct-28 03:17N 44°12' W 068°56'  
2017-Oct-22 16:00N 44°11' W 068°56'4 6.8
2017-Oct-22 15:21N 44°06' W 068°57'5 0.2
2017-Oct-21 15:42N 44°02' W 068°53'1 3.0
2017-Oct-21 15:25N 44°03' W 068°54'2 4.7
2017-Oct-21 14:59N 44°04' W 068°56'3 5.4
2017-Oct-21 14:28N 44°07' W 068°58'  
Track history (hours):
 
Tides and Currents Weather Stations Pressure Air Temp Water Temp Dewpoint Dewpoint Depression Visibility Wind Speed Wind Dir Waves Ship Positions

Schooner Bowdoin

Training vessel for Maine Maritime Academy.

Ship's website: http://bowdoin.mma.edu/

Owner: MAINE MARITIME ACADEMY, CASTINE, ME. More information available from US FCC via Universal Licensing System and Coast Guard Vessel Documentation Center.

Last reported at 2017-Oct-28 18:30 UTC. Time now 2017-Nov-17 19:24 UTC.
Position N 44°12' W 068°54'.
Warning: this ship's position is 20 days out of date.

; draft 3 m.

Type: Sailing vessel. MMSI: 303498000.

Date/timePositionNaut miles runAvg speedWind from/ knotsBaromVisibWave heightAir tempDewpointWater temp
2017-Oct-28 18:30N 44°12' W 068°54'4 5.2
2017-Oct-28 17:46N 44°09' W 068°57'2 5.7
2017-Oct-28 17:21N 44°06' W 068°58'2 6.0
2017-Oct-28 17:00N 44°04' W 068°59'16 2.3
2017-Oct-28 10:06N 43°49' W 068°56'7 4.2
2017-Oct-28 08:22N 43°56' W 068°58'2 4.1
2017-Oct-28 07:47N 43°58' W 068°60'2 4.0
2017-Oct-28 07:22N 43°60' W 069°00'2 3.7
2017-Oct-28 06:46N 44°02' W 069°01'2 4.4
2017-Oct-28 06:25N 44°04' W 069°01'2 4.3
2017-Oct-28 05:51N 44°06' W 069°00'2 4.4
2017-Oct-28 05:25N 44°07' W 068°58'2 4.8
2017-Oct-28 04:58N 44°09' W 068°57'3 1.5
2017-Oct-28 03:17N 44°12' W 068°56'  
2017-Oct-22 16:00N 44°11' W 068°56'4 6.8
2017-Oct-22 15:21N 44°06' W 068°57'5 0.2
2017-Oct-21 15:42N 44°02' W 068°53'1 3.0
2017-Oct-21 15:25N 44°03' W 068°54'2 4.7
2017-Oct-21 14:59N 44°04' W 068°56'3 5.4
2017-Oct-21 14:28N 44°07' W 068°58'  

Dump ship's entire track history